createdAt,value
2019-04-10T00:01:19.554Z,17.05
2019-04-10T00:03:50.456Z,17.17
2019-04-10T00:06:21.695Z,19.37
2019-04-10T00:08:52.782Z,14.95
2019-04-10T00:11:26.986Z,17.32
2019-04-10T00:13:57.420Z,17.87
2019-04-10T00:16:27.821Z,18.87
2019-04-10T00:18:58.172Z,15.88
2019-04-10T00:21:29.254Z,19.55
2019-04-10T00:23:59.663Z,15.32
2019-04-10T00:26:31.967Z,18.40
2019-04-10T00:29:03.538Z,17.25
2019-04-10T00:31:33.975Z,16.10
2019-04-10T00:34:05.379Z,17.65
2019-04-10T00:36:35.672Z,16.80
2019-04-10T00:39:08.628Z,16.23
2019-04-10T00:41:39.066Z,17.20
2019-04-10T00:44:09.449Z,17.70
2019-04-10T00:46:40.112Z,16.30
2019-04-10T00:49:10.580Z,17.42
2019-04-10T00:51:41.624Z,16.15
2019-04-10T00:54:12.335Z,16.48
2019-04-10T00:56:43.334Z,16.40
2019-04-10T00:59:15.678Z,16.35
2019-04-10T01:01:46.072Z,14.45
2019-04-10T01:04:16.367Z,15.00
2019-04-10T01:06:46.597Z,15.60
2019-04-10T01:09:17.407Z,15.18
2019-04-10T01:11:47.878Z,16.15
2019-04-10T01:14:18.171Z,15.78
2019-04-10T01:16:49.474Z,14.40
2019-04-10T01:19:19.842Z,13.78
2019-04-10T01:21:50.683Z,14.13
2019-04-10T01:24:21.674Z,16.23
2019-04-10T01:26:52.036Z,15.03
2019-04-10T01:29:22.275Z,14.47
2019-04-10T01:31:53.135Z,14.05
2019-04-10T01:34:23.547Z,16.60
2019-04-10T01:36:54.811Z,17.10
2019-04-10T01:39:28.700Z,15.55
2019-04-10T01:41:59.284Z,16.12
2019-04-10T01:44:30.828Z,15.32
2019-04-10T01:47:01.215Z,13.58
2019-04-10T01:49:31.592Z,14.43
2019-04-10T01:52:01.834Z,16.52
2019-04-10T01:54:33.019Z,18.80
2019-04-10T01:57:04.123Z,18.75
2019-04-10T01:59:36.305Z,18.45
2019-04-10T02:02:17.683Z,16.70
2019-04-10T02:04:51.328Z,17.48
2019-04-10T02:07:20.588Z,15.90
2019-04-10T02:09:51.871Z,12.23
2019-04-10T02:12:23.258Z,17.55
2019-04-10T02:14:54.379Z,15.45
2019-04-10T02:17:25.743Z,16.90
2019-04-10T02:19:56.790Z,18.35
2019-04-10T02:22:27.173Z,16.85
2019-04-10T02:24:57.736Z,15.60
2019-04-10T02:27:28.163Z,15.20
2019-04-10T02:29:58.500Z,15.32
2019-04-10T02:32:28.882Z,16.73
2019-04-10T02:34:59.239Z,15.03
2019-04-10T02:37:31.137Z,16.17
2019-04-10T02:40:04.550Z,15.25
2019-04-10T02:42:34.440Z,16.07
2019-04-10T02:45:05.978Z,15.58
2019-04-10T02:47:37.036Z,16.73
2019-04-10T02:50:09.550Z,16.35
2019-04-10T02:52:41.210Z,14.03
2019-04-10T02:55:11.988Z,14.93
2019-04-10T02:57:43.683Z,15.78
2019-04-10T03:00:14.388Z,12.43
2019-04-10T03:02:45.338Z,14.15
2019-04-10T03:05:16.285Z,16.48
2019-04-10T03:07:48.316Z,16.27
2019-04-10T03:10:26.503Z,16.15
2019-04-10T03:12:52.591Z,13.78
2019-04-10T03:15:23.381Z,14.00
2019-04-10T03:17:54.509Z,14.55
2019-04-10T03:20:24.911Z,15.03
2019-04-10T03:22:56.795Z,11.35
2019-04-10T03:25:27.296Z,12.00
2019-04-10T03:27:58.643Z,10.55
2019-04-10T03:30:29.708Z,10.72
2019-04-10T03:33:22.685Z,10.08
2019-04-10T03:35:52.744Z,9.65
2019-04-10T03:38:23.735Z,7.55
2019-04-10T03:40:54.236Z,7.83
2019-04-10T03:43:24.464Z,6.87
2019-04-10T03:45:55.148Z,8.20
2019-04-10T03:48:25.498Z,7.70
2019-04-10T03:50:56.265Z,6.67
2019-04-10T03:53:27.595Z,6.72
2019-04-10T03:55:57.807Z,6.25
2019-04-10T03:58:28.009Z,5.92
2019-04-10T04:00:58.562Z,6.28
2019-04-10T04:03:28.889Z,4.75
2019-04-10T04:06:00.133Z,5.78
2019-04-10T04:08:31.888Z,5.12
2019-04-10T04:11:02.307Z,5.00
2019-04-10T04:13:33.338Z,5.37
2019-04-10T04:16:03.766Z,4.80
2019-04-10T04:18:34.031Z,5.72
2019-04-10T04:21:05.501Z,5.72
2019-04-10T04:23:36.131Z,5.37
2019-04-10T04:26:07.218Z,5.33
2019-04-10T04:28:37.635Z,5.55
2019-04-10T04:31:07.868Z,6.22
2019-04-10T04:33:38.850Z,5.53
2019-04-10T04:36:10.239Z,5.75
2019-04-10T04:38:41.030Z,4.83
2019-04-10T04:41:11.494Z,4.83
2019-04-10T04:43:43.396Z,6.45
2019-04-10T04:46:14.152Z,5.80
2019-04-10T04:48:45.307Z,6.65
2019-04-10T04:51:15.759Z,6.08
2019-04-10T04:53:46.254Z,5.62
2019-04-10T04:56:17.827Z,5.62
2019-04-10T04:58:49.710Z,7.05
2019-04-10T05:01:21.067Z,7.08
2019-04-10T05:03:52.432Z,5.95
2019-04-10T05:06:24.679Z,5.95
2019-04-10T05:08:54.972Z,6.15
2019-04-10T05:11:25.260Z,7.03
2019-04-10T05:13:56.027Z,6.33
2019-04-10T05:16:27.471Z,7.47
2019-04-10T05:18:57.932Z,6.87
2019-04-10T05:21:28.153Z,7.47
2019-04-10T05:23:58.371Z,6.90
2019-04-10T05:26:28.571Z,6.12
2019-04-10T05:28:58.778Z,6.53
2019-04-10T05:31:29.203Z,6.60
2019-04-10T05:33:59.654Z,6.05
2019-04-10T05:36:29.859Z,5.12
2019-04-10T05:39:00.340Z,6.10
2019-04-10T05:41:31.436Z,5.67
2019-04-10T05:44:02.810Z,5.95
2019-04-10T05:46:34.267Z,6.90
2019-04-10T05:49:04.701Z,5.87
2019-04-10T05:51:34.972Z,6.40
2019-04-10T05:54:06.418Z,6.28
2019-04-10T05:56:36.859Z,9.33
2019-04-10T05:59:09.806Z,7.12
2019-04-10T06:01:41.314Z,6.22
2019-04-10T06:04:11.467Z,5.80
2019-04-10T06:06:41.691Z,5.20
2019-04-10T06:09:12.197Z,6.30
2019-04-10T06:11:44.088Z,5.92
2019-04-10T06:14:15.745Z,5.55
2019-04-10T06:16:46.857Z,5.70
2019-04-10T06:19:17.891Z,5.37
2019-04-10T06:21:50.323Z,5.03
2019-04-10T06:24:20.747Z,6.37
2019-04-10T06:26:52.038Z,10.25
2019-04-10T06:29:23.264Z,7.08
2019-04-10T06:31:53.464Z,6.00
2019-04-10T06:34:24.812Z,5.45
2019-04-10T06:36:55.293Z,5.05
2019-04-10T06:39:26.813Z,5.53
2019-04-10T06:41:58.180Z,5.37
2019-04-10T06:44:28.703Z,5.90
2019-04-10T06:46:59.937Z,6.70
2019-04-10T06:49:31.120Z,6.10
2019-04-10T06:52:01.897Z,6.03
2019-04-10T06:54:33.112Z,6.35
2019-04-10T06:57:03.524Z,5.95
2019-04-10T06:59:34.376Z,6.75
2019-04-10T07:02:16.714Z,5.20
2019-04-10T07:04:46.579Z,6.22
2019-04-10T07:07:12.356Z,6.55
2019-04-10T07:09:42.063Z,6.40
2019-04-10T07:12:12.528Z,6.20
2019-04-10T07:14:45.538Z,6.42
2019-04-10T07:17:16.566Z,5.30
2019-04-10T07:19:46.860Z,6.10
2019-04-10T07:22:17.532Z,6.12
2019-04-10T07:24:48.307Z,5.78
2019-04-10T07:27:19.506Z,5.67
2019-04-10T07:29:52.306Z,6.28
2019-04-10T07:32:24.172Z,6.62
2019-04-10T07:34:59.204Z,5.78
2019-04-10T07:37:26.904Z,5.62
2019-04-10T07:39:59.723Z,6.15
2019-04-10T07:42:36.541Z,4.70
2019-04-10T07:45:01.217Z,5.80
2019-04-10T07:47:32.537Z,6.33
2019-04-10T07:50:04.589Z,5.40
2019-04-10T07:52:35.208Z,5.28
2019-04-10T07:55:06.607Z,5.80
2019-04-10T07:57:38.506Z,6.45
2019-04-10T08:00:11.099Z,5.28
2019-04-10T08:02:42.639Z,5.25
2019-04-10T08:05:13.385Z,6.00
2019-04-10T08:07:43.614Z,5.90
2019-04-10T08:10:14.169Z,5.80
2019-04-10T08:12:49.035Z,4.92
2019-04-10T08:15:16.865Z,5.72
2019-04-10T08:17:50.503Z,5.75
2019-04-10T08:20:19.138Z,5.42
2019-04-10T08:22:49.412Z,5.03
2019-04-10T08:28:45.360Z,4.12
2019-04-10T08:31:16.981Z,5.50
2019-04-10T08:33:47.428Z,5.75
2019-04-10T08:36:17.828Z,6.05
2019-04-10T08:38:48.960Z,5.60
2019-04-10T08:41:19.503Z,4.87
2019-04-10T08:43:50.291Z,4.22
2019-04-10T08:46:21.853Z,4.03
2019-04-10T08:48:52.152Z,4.90
2019-04-10T08:51:23.421Z,5.72
2019-04-10T08:53:55.631Z,4.60
2019-04-10T08:56:25.777Z,6.53
2019-04-10T08:58:57.173Z,6.70
2019-04-10T09:01:27.530Z,5.70
2019-04-10T09:03:57.984Z,6.60
2019-04-10T09:06:28.379Z,5.75
2019-04-10T09:08:59.436Z,8.33
2019-04-10T09:11:32.627Z,8.48
2019-04-10T09:14:03.837Z,7.90
2019-04-10T09:16:34.330Z,9.45
2019-04-10T09:19:05.567Z,11.48
2019-04-10T09:21:36.911Z,11.08
2019-04-10T09:24:08.212Z,11.25
2019-04-10T09:26:38.519Z,12.03
2019-04-10T09:29:08.918Z,10.85
2019-04-10T09:31:40.032Z,10.32
2019-04-10T09:34:11.657Z,8.00
2019-04-10T09:36:42.116Z,8.18
2019-04-10T09:39:14.948Z,7.05
2019-04-10T09:41:46.065Z,6.95
2019-04-10T09:44:16.534Z,7.50
2019-04-10T09:46:47.317Z,7.72
2019-04-10T09:49:17.631Z,7.55
2019-04-10T09:51:48.186Z,7.75
2019-04-10T09:54:18.616Z,8.63
2019-04-10T09:56:49.241Z,7.85
2019-04-10T09:59:31.254Z,7.95
2019-04-10T10:01:53.279Z,8.25
2019-04-10T10:04:23.703Z,8.35
2019-04-10T10:06:53.916Z,7.67
2019-04-10T10:09:24.290Z,7.25
2019-04-10T10:11:55.457Z,7.87
2019-04-10T10:14:26.569Z,7.22
2019-04-10T10:16:58.018Z,7.85
2019-04-10T10:19:28.491Z,7.67
2019-04-10T10:22:01.776Z,6.92
2019-04-10T10:24:30.963Z,7.08
2019-04-10T10:27:01.949Z,7.83
2019-04-10T10:29:33.456Z,8.08
2019-04-10T10:32:04.628Z,8.95
2019-04-10T10:34:35.123Z,8.48
2019-04-10T10:37:06.346Z,8.40
2019-04-10T10:39:38.906Z,7.65
2019-04-10T10:42:09.596Z,8.45
2019-04-10T10:44:40.444Z,8.13
2019-04-10T10:47:11.743Z,8.98
2019-04-10T10:49:42.398Z,8.03
2019-04-10T10:52:12.873Z,9.43
2019-04-10T10:54:43.283Z,8.55
2019-04-10T10:57:13.687Z,8.63
2019-04-10T10:59:44.099Z,8.73
2019-04-10T11:02:15.353Z,10.03
2019-04-10T11:04:45.673Z,9.68
2019-04-10T11:07:18.606Z,9.85
2019-04-10T11:09:50.297Z,9.63
2019-04-10T11:12:21.904Z,8.53
2019-04-10T11:14:52.358Z,7.72
2019-04-10T11:17:22.868Z,8.33
2019-04-10T11:19:53.554Z,8.10
2019-04-10T11:22:25.795Z,9.18
2019-04-10T11:24:55.951Z,9.33
2019-04-10T11:27:28.003Z,10.30
2019-04-10T11:30:00.813Z,9.60
2019-04-10T11:32:33.935Z,9.80
2019-04-10T11:35:06.717Z,10.28
2019-04-10T11:37:43.438Z,9.28
2019-04-10T11:40:09.579Z,9.60
2019-04-10T11:42:40.288Z,10.23
2019-04-10T11:45:13.706Z,9.45
2019-04-10T11:47:44.922Z,9.88
2019-04-10T11:50:18.407Z,9.10
2019-04-10T11:52:52.401Z,9.13
2019-04-10T11:55:22.000Z,9.53
2019-04-10T11:57:51.877Z,9.50
2019-04-10T12:00:45.286Z,9.95
2019-04-10T12:03:10.297Z,8.98
2019-04-10T12:05:42.049Z,9.50
2019-04-10T12:08:48.597Z,10.45
2019-04-10T12:13:17.982Z,10.48
2019-04-10T12:15:48.601Z,9.93
2019-04-10T12:18:18.837Z,9.50
2019-04-10T12:20:49.254Z,10.35
2019-04-10T12:23:20.866Z,10.90
2019-04-10T12:25:52.182Z,9.90
2019-04-10T12:28:23.153Z,10.20
2019-04-10T12:30:55.491Z,9.68
2019-04-10T12:33:25.815Z,11.08
2019-04-10T12:35:56.230Z,10.75
2019-04-10T12:38:27.646Z,10.53
2019-04-10T12:40:59.017Z,10.72
2019-04-10T12:43:29.459Z,11.08
2019-04-10T12:46:00.303Z,11.22
2019-04-10T12:48:31.004Z,10.95
2019-04-10T12:51:01.437Z,11.18
2019-04-10T12:53:31.799Z,11.03
2019-04-10T12:56:02.126Z,11.70
2019-04-10T12:58:32.985Z,13.80
2019-04-10T13:01:04.527Z,12.28
2019-04-10T13:03:35.556Z,13.70
2019-04-10T13:06:07.435Z,13.22
2019-04-10T13:08:52.637Z,12.28
2019-04-10T13:11:10.155Z,12.90
2019-04-10T13:13:40.466Z,12.75
2019-04-10T13:16:11.984Z,12.28
2019-04-10T13:18:42.789Z,11.75
2019-04-10T13:21:14.683Z,12.53
2019-04-10T13:23:45.000Z,11.63
2019-04-10T13:26:15.621Z,11.22
2019-04-10T13:28:45.996Z,11.55
2019-04-10T13:31:17.189Z,12.10
2019-04-10T13:33:47.452Z,12.23
2019-04-10T13:36:17.723Z,12.25
2019-04-10T13:38:48.540Z,11.70
2019-04-10T13:41:19.297Z,11.60
2019-04-10T13:43:50.377Z,13.10
2019-04-10T13:46:20.620Z,13.65
2019-04-10T13:48:50.833Z,13.65
2019-04-10T13:51:21.361Z,13.83
2019-04-10T13:53:52.316Z,13.50
2019-04-10T13:56:23.268Z,12.18
2019-04-10T13:58:53.674Z,13.93
2019-04-10T14:01:27.940Z,14.55
2019-04-10T14:03:58.667Z,14.43
2019-04-10T14:06:29.711Z,14.07
2019-04-10T14:09:17.856Z,14.80
2019-04-10T14:11:33.807Z,14.55
2019-04-10T14:14:04.511Z,15.28
2019-04-10T14:16:36.989Z,13.45
2019-04-10T14:19:09.621Z,13.53
2019-04-10T14:21:40.856Z,15.43
2019-04-10T14:24:13.364Z,13.50
2019-04-10T14:27:11.964Z,13.40
2019-04-10T14:29:42.693Z,15.98
2019-04-10T14:32:18.853Z,22.90
2019-04-10T14:34:49.139Z,24.72
2019-04-10T14:37:19.548Z,30.57
2019-04-10T14:39:49.902Z,31.50
2019-04-10T14:54:43.985Z,36.03
2019-04-10T15:01:39.401Z,43.52
2019-04-10T15:04:44.184Z,45.10
2019-04-10T15:12:33.279Z,53.70
2019-04-10T15:18:41.212Z,64.40
2019-04-10T15:21:12.375Z,65.65
2019-04-10T15:23:42.676Z,67.05
2019-04-10T15:26:13.446Z,66.33
2019-04-10T15:28:43.744Z,70.75
2019-04-10T15:31:15.074Z,73.10
2019-04-10T15:33:45.374Z,68.78
2019-04-10T15:36:15.857Z,66.75
2019-04-10T15:38:46.392Z,71.75
2019-04-10T15:41:16.962Z,68.47
2019-04-10T15:43:51.679Z,70.60
2019-04-10T15:46:22.102Z,70.83
2019-04-10T15:48:52.930Z,73.17
2019-04-10T15:51:24.453Z,68.75
2019-04-10T15:53:54.729Z,64.03
2019-04-10T15:56:25.667Z,69.10
2019-04-10T15:58:56.875Z,66.72
2019-04-10T16:01:28.575Z,65.00
2019-04-10T16:03:59.107Z,65.12
2019-04-10T16:06:29.415Z,65.85
2019-04-10T16:09:00.978Z,65.10
2019-04-10T16:11:48.812Z,69.37
2019-04-10T16:14:23.187Z,64.67
2019-04-10T16:17:07.070Z,59.27
2019-04-10T16:19:45.050Z,59.20
2019-04-10T16:22:33.466Z,61.90
2019-04-10T16:25:18.440Z,56.68
2019-04-10T16:27:48.738Z,56.30
2019-04-10T16:30:22.109Z,59.83
2019-04-10T16:32:52.379Z,58.15
2019-04-10T16:35:23.151Z,50.92
2019-04-10T16:37:53.427Z,56.00
2019-04-10T16:40:23.704Z,63.63
2019-04-10T16:42:55.093Z,60.48
2019-04-10T16:45:26.520Z,59.23
2019-04-10T16:47:56.722Z,65.52
2019-04-10T16:50:27.880Z,60.90
2019-04-10T16:52:58.141Z,61.90
2019-04-10T16:55:29.096Z,69.42
2019-04-10T16:57:59.381Z,68.47
2019-04-10T17:00:29.779Z,64.47
2019-04-10T17:03:00.063Z,69.42
2019-04-10T17:05:33.128Z,62.45
2019-04-10T17:08:03.629Z,72.25
2019-04-10T17:10:34.554Z,66.87
2019-04-10T17:13:07.302Z,70.83
2019-04-10T17:15:37.741Z,71.15
2019-04-10T17:18:08.711Z,76.55
2019-04-10T17:20:39.054Z,73.65
2019-04-10T17:23:10.013Z,73.33
2019-04-10T17:25:40.575Z,76.60
2019-04-10T17:28:12.189Z,71.85
2019-04-10T17:30:42.750Z,78.20
2019-04-10T17:33:13.255Z,74.37
2019-04-10T17:35:45.525Z,73.05
2019-04-10T17:38:15.856Z,65.03
2019-04-10T17:40:50.659Z,68.40
2019-04-10T17:43:19.022Z,73.55
2019-04-10T17:45:49.381Z,74.87
2019-04-10T17:48:19.922Z,64.75
2019-04-10T17:50:50.198Z,73.07
2019-04-10T17:53:21.105Z,60.88
2019-04-10T17:55:51.652Z,72.37
2019-04-10T17:58:23.047Z,72.55
2019-04-10T18:00:55.891Z,75.15
2019-04-10T18:03:39.675Z,77.22
2019-04-10T18:05:59.102Z,77.65
2019-04-10T18:08:30.107Z,75.08
2019-04-10T18:11:00.416Z,77.08
2019-04-10T18:13:30.914Z,76.00
2019-04-10T18:16:02.342Z,77.08
2019-04-10T18:18:32.711Z,76.62
2019-04-10T18:21:03.006Z,76.37
2019-04-10T18:23:33.580Z,78.15
2019-04-10T18:26:04.573Z,79.17
2019-04-10T18:28:36.499Z,72.27
2019-04-10T18:31:08.386Z,74.70
2019-04-10T18:33:38.719Z,71.70
2019-04-10T18:36:09.196Z,64.17
2019-04-10T18:38:39.618Z,73.07
2019-04-10T18:41:10.083Z,77.27
2019-04-10T18:43:40.392Z,76.30
2019-04-10T18:46:14.760Z,76.70
2019-04-10T18:48:45.607Z,72.97
2019-04-10T18:51:15.958Z,72.03
2019-04-10T18:53:46.320Z,74.80
2019-04-10T18:56:16.730Z,76.77
2019-04-10T18:59:21.184Z,73.72
2019-04-10T19:02:16.304Z,74.45
2019-04-10T19:04:51.699Z,75.07
2019-04-10T19:07:22.899Z,73.95
2019-04-10T19:09:53.201Z,75.17
2019-04-10T19:12:24.398Z,68.22
2019-04-10T19:14:54.745Z,78.37
2019-04-10T19:17:25.019Z,69.58
2019-04-10T19:19:55.253Z,76.82
2019-04-10T19:22:26.297Z,74.60
2019-04-10T19:24:56.722Z,71.53
2019-04-10T19:27:30.084Z,74.62
2019-04-10T19:30:00.439Z,82.78
2019-04-10T19:32:39.689Z,75.95
2019-04-10T19:35:19.989Z,68.30
2019-04-10T19:37:52.855Z,78.47
2019-04-10T19:40:23.539Z,72.25
2019-04-10T19:42:53.965Z,79.03
2019-04-10T19:45:24.191Z,82.27
2019-04-10T19:47:54.715Z,84.17
2019-04-10T19:50:25.523Z,83.27
2019-04-10T19:52:55.722Z,84.55
2019-04-10T19:55:26.091Z,79.20
2019-04-10T19:57:57.400Z,80.47
2019-04-10T20:00:32.754Z,84.75
2019-04-10T20:05:32.344Z,84.10
2019-04-10T20:08:02.700Z,83.72
2019-04-10T20:10:33.179Z,84.28
2019-04-10T20:13:03.377Z,86.30
2019-04-10T20:15:34.189Z,84.75
2019-04-10T20:18:04.835Z,86.02
2019-04-10T20:20:36.114Z,85.28
2019-04-10T20:23:07.079Z,86.40
2019-04-10T20:25:38.720Z,81.47
2019-04-10T20:28:09.063Z,76.07
2019-04-10T20:30:40.361Z,85.40
2019-04-10T20:33:10.794Z,89.80
2019-04-10T20:35:40.995Z,87.02
2019-04-10T20:38:11.431Z,87.45
2019-04-10T20:40:42.299Z,76.28
2019-04-10T20:43:13.708Z,84.62
2019-04-10T20:45:44.078Z,79.05
2019-04-10T20:48:14.301Z,83.22
2019-04-10T20:50:44.546Z,87.22
2019-04-10T20:53:15.788Z,83.72
2019-04-10T20:55:46.178Z,87.12
2019-04-10T20:58:18.660Z,89.45
2019-04-10T21:00:49.813Z,87.92
2019-04-10T21:03:20.303Z,90.92
2019-04-10T21:05:52.797Z,85.15
2019-04-10T21:08:23.239Z,83.17
2019-04-10T21:10:54.720Z,85.30
2019-04-10T21:13:25.385Z,79.70
2019-04-10T21:15:55.792Z,81.05
2019-04-10T21:18:27.128Z,68.33
2019-04-10T21:20:57.668Z,76.90
2019-04-10T21:23:27.944Z,68.25
2019-04-10T21:25:58.163Z,61.40
2019-04-10T21:28:28.437Z,69.45
2019-04-10T21:31:27.331Z,67.35
2019-04-10T21:34:22.796Z,74.85
2019-04-10T21:36:53.397Z,65.28
2019-04-10T21:39:23.930Z,63.73
2019-04-10T21:41:54.276Z,71.70
2019-04-10T21:44:24.742Z,71.25
2019-04-10T21:46:55.146Z,68.97
2019-04-10T21:49:26.177Z,67.80
2019-04-10T21:51:57.897Z,65.20
2019-04-10T21:54:29.286Z,56.53
2019-04-10T21:56:59.825Z,63.28
2019-04-10T21:59:31.014Z,69.47
2019-04-10T22:02:02.652Z,67.25
2019-04-10T22:04:33.156Z,63.40
2019-04-10T22:07:22.050Z,58.98
2019-04-10T22:10:10.171Z,56.15
2019-04-10T22:12:45.490Z,73.67
2019-04-10T22:15:24.984Z,77.92
2019-04-10T22:17:55.262Z,74.12
2019-04-10T22:20:25.702Z,77.80
2019-04-10T22:22:55.971Z,77.53
2019-04-10T22:25:27.614Z,82.62
2019-04-10T22:27:58.360Z,77.58
2019-04-10T22:30:29.756Z,78.95
2019-04-10T22:33:00.024Z,75.32
2019-04-10T22:35:31.348Z,74.15
2019-04-10T22:38:02.630Z,69.80
2019-04-10T22:40:33.365Z,70.57
2019-04-10T22:43:03.724Z,69.50
2019-04-10T22:45:34.367Z,64.82
2019-04-10T22:48:06.162Z,75.32
2019-04-10T22:50:36.563Z,72.53
2019-04-10T22:53:06.934Z,73.30
2019-04-10T22:55:37.248Z,67.70
2019-04-10T22:58:08.623Z,70.47
2019-04-10T23:00:39.796Z,69.62
2019-04-10T23:03:11.379Z,70.95
2019-04-10T23:05:42.772Z,75.65
2019-04-10T23:08:13.499Z,69.67
2019-04-10T23:10:43.937Z,76.37
2019-04-10T23:13:14.211Z,73.67
2019-04-10T23:15:44.714Z,70.52
2019-04-10T23:18:15.164Z,72.58
2019-04-10T23:20:45.363Z,70.42
2019-04-10T23:23:16.811Z,70.95
2019-04-10T23:25:47.281Z,73.57
2019-04-10T23:28:17.709Z,69.00
2019-04-10T23:30:48.862Z,67.92
2019-04-10T23:33:19.696Z,67.15
2019-04-10T23:35:49.980Z,66.35
2019-04-10T23:38:20.176Z,63.92
2019-04-10T23:40:51.507Z,59.73
2019-04-10T23:43:22.763Z,62.55
2019-04-10T23:45:55.779Z,62.38
2019-04-10T23:48:26.105Z,59.60
2019-04-10T23:50:56.650Z,59.83
2019-04-10T23:53:28.762Z,60.00
2019-04-10T23:55:59.282Z,60.40
2019-04-10T23:58:29.837Z,55.40
